createdAt,value
2018-10-15T00:01:01.364Z,10.30
2018-10-15T00:03:30.218Z,10.10
2018-10-15T00:05:59.121Z,10.00
2018-10-15T00:08:28.090Z,9.90
2018-10-15T00:10:57.026Z,9.90
2018-10-15T00:13:25.967Z,9.80
2018-10-15T00:15:54.792Z,9.80
2018-10-15T00:18:23.707Z,9.70
2018-10-15T00:20:52.552Z,9.70
2018-10-15T00:23:21.450Z,9.60
2018-10-15T00:25:50.439Z,9.60
2018-10-15T00:28:19.369Z,9.60
2018-10-15T00:30:48.176Z,9.60
2018-10-15T00:33:17.118Z,9.50
2018-10-15T00:35:46.193Z,9.40
2018-10-15T00:38:15.091Z,9.30
2018-10-15T00:40:43.949Z,9.30
2018-10-15T00:43:12.879Z,9.30
2018-10-15T00:45:41.793Z,9.30
2018-10-15T00:48:10.711Z,9.20
2018-10-15T00:50:39.584Z,9.00
2018-10-15T00:53:08.415Z,8.90
2018-10-15T00:55:37.395Z,8.90
2018-10-15T00:58:06.316Z,8.70
2018-10-15T01:00:35.209Z,8.70
2018-10-15T01:03:04.223Z,8.70
2018-10-15T01:05:33.124Z,8.60
2018-10-15T01:08:02.057Z,8.50
2018-10-15T01:10:30.931Z,8.40
2018-10-15T01:12:59.786Z,8.40
2018-10-15T01:15:28.682Z,8.50
2018-10-15T01:17:57.502Z,8.50
2018-10-15T01:20:26.462Z,8.50
2018-10-15T01:22:55.422Z,8.50
2018-10-15T01:25:24.261Z,8.50
2018-10-15T01:27:53.142Z,8.40
2018-10-15T01:30:22.039Z,8.40
2018-10-15T01:32:50.927Z,8.30
2018-10-15T01:35:19.806Z,8.20
2018-10-15T01:37:48.697Z,8.10
2018-10-15T01:40:18.331Z,8.00
2018-10-15T01:42:47.135Z,7.90
2018-10-15T01:45:16.129Z,7.80
2018-10-15T01:47:44.979Z,7.80
2018-10-15T01:50:13.789Z,7.80
2018-10-15T01:52:53.797Z,7.60
2018-10-15T01:55:29.349Z,7.50
2018-10-15T01:57:58.213Z,7.40
2018-10-15T02:00:27.542Z,7.30
2018-10-15T02:02:56.350Z,7.10
2018-10-15T02:05:25.259Z,7.00
2018-10-15T02:07:54.560Z,6.80
2018-10-15T02:10:23.415Z,6.80
2018-10-15T02:12:52.366Z,6.80
2018-10-15T02:15:21.539Z,6.70
2018-10-15T02:17:50.478Z,6.80
2018-10-15T02:20:19.388Z,6.90
2018-10-15T02:22:48.243Z,6.90
2018-10-15T02:25:17.065Z,6.90
2018-10-15T02:27:46.004Z,6.80
2018-10-15T02:30:14.796Z,6.80
2018-10-15T02:32:43.667Z,6.70
2018-10-15T02:35:12.560Z,6.70
2018-10-15T02:37:42.300Z,6.50
2018-10-15T02:40:16.839Z,6.50
2018-10-15T02:42:45.684Z,6.40
2018-10-15T02:45:14.738Z,6.50
2018-10-15T02:47:43.688Z,6.70
2018-10-15T02:50:12.602Z,6.80
2018-10-15T02:52:41.856Z,6.90
2018-10-15T02:55:10.714Z,6.80
2018-10-15T02:57:39.514Z,6.70
2018-10-15T03:00:10.996Z,6.80
2018-10-15T03:02:40.230Z,6.80
2018-10-15T03:05:10.390Z,6.80
2018-10-15T03:07:39.813Z,6.70
2018-10-15T03:10:08.786Z,6.70
2018-10-15T03:12:37.941Z,6.70
2018-10-15T03:15:07.887Z,6.60
2018-10-15T03:17:37.012Z,6.70
2018-10-15T03:20:06.981Z,6.70
2018-10-15T03:22:35.853Z,6.60
2018-10-15T03:25:04.743Z,6.50
2018-10-15T03:27:33.546Z,6.40
2018-10-15T03:30:02.394Z,6.20
2018-10-15T03:32:31.242Z,6.10
2018-10-15T03:35:00.472Z,6.00
2018-10-15T03:37:30.040Z,5.90
2018-10-15T03:39:58.951Z,5.80
2018-10-15T03:42:27.792Z,5.70
2018-10-15T03:44:56.764Z,5.70
2018-10-15T03:47:25.765Z,5.70
2018-10-15T03:49:54.691Z,5.70
2018-10-15T03:52:23.584Z,5.80
2018-10-15T03:54:52.470Z,5.70
2018-10-15T03:57:21.611Z,5.70
2018-10-15T03:59:50.472Z,5.60
2018-10-15T04:02:19.798Z,5.60
2018-10-15T04:04:48.661Z,5.60
2018-10-15T04:07:17.496Z,5.50
2018-10-15T04:09:46.456Z,5.40
2018-10-15T04:12:15.446Z,5.50
2018-10-15T04:14:44.370Z,5.40
2018-10-15T04:17:13.274Z,5.50
2018-10-15T04:19:42.138Z,5.40
2018-10-15T04:22:11.130Z,5.40
2018-10-15T04:24:40.056Z,5.40
2018-10-15T04:27:09.008Z,5.50
2018-10-15T04:29:38.246Z,5.60
2018-10-15T04:32:07.177Z,5.60
2018-10-15T04:34:36.411Z,5.60
2018-10-15T04:37:05.330Z,5.60
2018-10-15T04:39:34.253Z,5.80
2018-10-15T04:42:03.154Z,5.90
2018-10-15T04:44:32.065Z,6.00
2018-10-15T04:47:01.179Z,6.00
2018-10-15T04:49:30.497Z,5.90
2018-10-15T04:51:59.679Z,5.80
2018-10-15T04:54:28.567Z,5.70
2018-10-15T04:56:57.521Z,5.70
2018-10-15T04:59:26.406Z,5.70
2018-10-15T05:01:55.256Z,5.70
2018-10-15T05:04:24.189Z,5.70
2018-10-15T05:06:53.020Z,5.80
2018-10-15T05:09:21.967Z,5.70
2018-10-15T05:11:50.840Z,5.70
2018-10-15T05:14:19.700Z,5.60
2018-10-15T05:16:48.783Z,5.60
2018-10-15T05:19:17.774Z,5.50
2018-10-15T05:21:46.552Z,5.50
2018-10-15T05:24:15.481Z,5.50
2018-10-15T05:26:44.302Z,5.50
2018-10-15T05:29:13.208Z,5.30
2018-10-15T05:31:42.130Z,5.30
2018-10-15T05:34:10.978Z,5.20
2018-10-15T05:36:39.931Z,5.30
2018-10-15T05:39:10.509Z,5.10
2018-10-15T05:41:39.481Z,5.00
2018-10-15T05:44:08.587Z,5.00
2018-10-15T05:46:37.977Z,5.00
2018-10-15T05:49:07.443Z,5.10
2018-10-15T05:51:36.348Z,5.30
2018-10-15T05:54:05.706Z,5.40
2018-10-15T05:56:34.624Z,5.50
2018-10-15T05:59:03.703Z,5.60
2018-10-15T06:01:32.565Z,5.70
2018-10-15T06:04:01.444Z,5.70
2018-10-15T06:06:30.451Z,5.80
2018-10-15T06:08:59.288Z,5.80
2018-10-15T06:11:28.154Z,5.90
2018-10-15T06:13:56.994Z,5.90
2018-10-15T06:16:25.820Z,6.00
2018-10-15T06:18:54.626Z,6.00
2018-10-15T06:21:23.421Z,6.10
2018-10-15T06:23:52.257Z,6.30
2018-10-15T06:26:21.225Z,6.50
2018-10-15T06:28:50.043Z,6.80
2018-10-15T06:31:19.184Z,7.00
2018-10-15T06:33:48.193Z,7.30
2018-10-15T06:36:17.710Z,7.40
2018-10-15T06:38:46.552Z,7.70
2018-10-15T06:41:15.593Z,7.90
2018-10-15T06:43:44.446Z,8.10
2018-10-15T06:46:13.756Z,8.30
2018-10-15T06:48:42.629Z,8.30
2018-10-15T06:51:11.908Z,8.40
2018-10-15T06:53:40.847Z,8.60
2018-10-15T06:56:09.728Z,8.90
2018-10-15T06:58:38.601Z,9.20
2018-10-15T07:01:07.497Z,9.40
2018-10-15T07:03:36.390Z,9.70
2018-10-15T07:06:05.597Z,9.90
2018-10-15T07:08:34.468Z,10.00
2018-10-15T07:11:03.346Z,10.10
2018-10-15T07:13:32.305Z,10.30
2018-10-15T07:16:01.256Z,10.40
2018-10-15T07:18:30.164Z,10.40
2018-10-15T07:20:59.103Z,10.60
2018-10-15T07:23:27.964Z,10.70
2018-10-15T07:25:56.851Z,10.80
2018-10-15T07:28:25.735Z,11.00
2018-10-15T07:30:54.646Z,11.20
2018-10-15T07:33:24.036Z,11.40
2018-10-15T07:35:53.168Z,11.60
2018-10-15T07:38:22.227Z,11.90
2018-10-15T07:40:50.992Z,12.20
2018-10-15T07:43:19.863Z,12.60
2018-10-15T07:45:48.866Z,13.10
2018-10-15T07:48:17.808Z,13.50
2018-10-15T07:50:46.606Z,14.10
2018-10-15T07:53:15.515Z,14.60
2018-10-15T07:55:44.622Z,15.30
2018-10-15T07:58:13.560Z,16.00
2018-10-15T08:00:42.384Z,16.80
2018-10-15T08:03:11.273Z,17.20
2018-10-15T08:05:40.204Z,17.60
2018-10-15T08:08:09.100Z,18.10
2018-10-15T08:10:38.053Z,18.70
2018-10-15T08:13:06.992Z,19.20
2018-10-15T08:15:35.959Z,19.60
2018-10-15T08:18:04.779Z,20.30
2018-10-15T08:20:33.746Z,20.30
2018-10-15T08:23:02.740Z,20.80
2018-10-15T08:25:31.902Z,21.10
2018-10-15T08:28:00.978Z,21.50
2018-10-15T08:30:29.809Z,21.90
2018-10-15T08:32:58.731Z,22.20
2018-10-15T08:35:27.748Z,22.70
2018-10-15T08:37:56.575Z,23.40
2018-10-15T08:40:25.480Z,23.60
2018-10-15T08:42:54.393Z,23.80
2018-10-15T08:45:24.380Z,24.30
2018-10-15T08:47:53.813Z,24.80
2018-10-15T08:50:22.844Z,25.20
2018-10-15T08:52:52.309Z,25.50
2018-10-15T08:55:21.589Z,25.60
2018-10-15T08:57:50.488Z,25.80
2018-10-15T09:00:21.278Z,25.90
2018-10-15T09:02:50.367Z,26.20
2018-10-15T09:05:19.313Z,26.70
2018-10-15T09:07:48.580Z,26.90
2018-10-15T09:10:19.017Z,26.60
2018-10-15T09:12:48.178Z,27.00
2018-10-15T09:15:20.555Z,27.30
2018-10-15T09:17:49.539Z,27.20
2018-10-15T09:20:18.452Z,27.10
2018-10-15T09:22:47.442Z,27.10
2018-10-15T09:25:17.672Z,27.00
2018-10-15T09:27:48.184Z,27.00
2018-10-15T09:30:19.503Z,27.00
2018-10-15T09:32:48.471Z,26.60
2018-10-15T09:35:18.294Z,26.50
2018-10-15T09:37:47.241Z,25.90
2018-10-15T09:40:18.438Z,25.40
2018-10-15T09:42:47.828Z,25.60
2018-10-15T09:45:17.947Z,25.70
2018-10-15T09:47:48.911Z,26.30
2018-10-15T09:50:17.912Z,27.00
2018-10-15T09:52:47.007Z,26.90
2018-10-15T09:55:16.382Z,26.50
2018-10-15T09:57:46.017Z,26.20
2018-10-15T10:00:21.236Z,25.40
2018-10-15T10:02:52.692Z,24.70
2018-10-15T10:05:21.574Z,24.20
2018-10-15T10:07:50.644Z,23.90
2018-10-15T10:10:19.518Z,23.70
2018-10-15T10:12:48.532Z,23.00
2018-10-15T10:15:17.524Z,22.80
2018-10-15T10:17:47.083Z,22.40
2018-10-15T10:20:16.434Z,22.20
2018-10-15T10:22:45.462Z,22.10
2018-10-15T10:25:15.687Z,21.90
2018-10-15T10:27:44.612Z,22.00
2018-10-15T10:30:14.862Z,21.90
2018-10-15T10:32:44.008Z,21.90
2018-10-15T10:35:29.373Z,21.90
2018-10-15T10:40:32.696Z,21.80
2018-10-15T10:43:01.603Z,21.70
2018-10-15T10:45:30.548Z,21.80
2018-10-15T10:47:59.612Z,21.90
2018-10-15T10:50:28.554Z,21.90
2018-10-15T10:52:57.958Z,21.90
2018-10-15T10:55:26.899Z,22.00
2018-10-15T10:57:55.842Z,22.00
2018-10-15T11:00:24.699Z,22.10
2018-10-15T11:02:53.736Z,22.20
2018-10-15T11:05:22.563Z,22.20
2018-10-15T11:07:51.495Z,22.30
2018-10-15T11:10:20.541Z,22.50
2018-10-15T11:12:49.412Z,22.80
2018-10-15T11:15:18.485Z,23.00
2018-10-15T11:17:47.367Z,23.60
2018-10-15T11:20:16.245Z,24.10
2018-10-15T11:22:45.250Z,25.00
2018-10-15T11:25:14.182Z,25.70
2018-10-15T11:27:43.413Z,26.10
2018-10-15T11:30:12.355Z,26.50
2018-10-15T11:32:41.256Z,27.30
2018-10-15T11:35:10.672Z,27.10
2018-10-15T11:37:39.592Z,27.00
2018-10-15T11:40:08.552Z,26.80
2018-10-15T11:42:37.703Z,27.20
2018-10-15T11:45:07.805Z,27.70
2018-10-15T11:47:36.860Z,28.30
2018-10-15T11:50:06.255Z,28.00
2018-10-15T11:52:35.272Z,28.40
2018-10-15T11:55:04.164Z,30.00
2018-10-15T11:57:33.100Z,31.30
2018-10-15T12:00:02.057Z,31.20
2018-10-15T12:02:31.049Z,30.20
2018-10-15T12:04:59.913Z,29.90
2018-10-15T12:07:28.883Z,30.20
2018-10-15T12:09:57.782Z,31.10
2018-10-15T12:12:26.686Z,31.20
2018-10-15T12:14:55.527Z,31.80
2018-10-15T12:17:24.416Z,32.70
2018-10-15T12:19:53.483Z,33.00
2018-10-15T12:22:22.459Z,33.60
2018-10-15T12:24:51.561Z,34.10
2018-10-15T12:27:20.471Z,34.60
2018-10-15T12:29:49.475Z,33.70
2018-10-15T12:32:18.472Z,33.00
2018-10-15T12:34:47.925Z,30.70
2018-10-15T12:37:17.275Z,28.60
2018-10-15T12:39:46.240Z,27.10
2018-10-15T12:42:15.122Z,25.90
2018-10-15T12:44:44.245Z,24.90
2018-10-15T12:47:13.234Z,24.50
2018-10-15T12:49:42.484Z,25.40
2018-10-15T12:52:11.333Z,26.70
2018-10-15T12:54:40.665Z,26.30
2018-10-15T12:57:09.631Z,25.80
2018-10-15T12:59:38.547Z,25.40
2018-10-15T13:02:07.464Z,25.60
2018-10-15T13:04:36.449Z,26.70
2018-10-15T13:07:05.726Z,28.50
2018-10-15T13:09:34.695Z,30.00
2018-10-15T13:12:03.634Z,31.50
2018-10-15T13:14:32.606Z,31.70
2018-10-15T13:17:01.531Z,31.10
2018-10-15T13:19:30.485Z,30.60
2018-10-15T13:21:59.632Z,31.50
2018-10-15T13:24:28.569Z,31.80
2018-10-15T13:26:57.461Z,31.70
2018-10-15T13:29:26.438Z,30.50
2018-10-15T13:31:55.384Z,30.70
2018-10-15T13:34:24.269Z,30.80
2018-10-15T13:36:53.223Z,30.30
2018-10-15T13:39:22.216Z,30.20
2018-10-15T13:41:51.208Z,30.00
2018-10-15T13:44:20.145Z,29.70
2018-10-15T13:46:49.505Z,30.00
2018-10-15T13:49:18.409Z,30.30
2018-10-15T13:51:47.345Z,30.40
2018-10-15T13:54:16.297Z,30.10
2018-10-15T13:56:45.312Z,30.00
2018-10-15T13:59:14.267Z,30.10
2018-10-15T14:01:43.550Z,29.90
2018-10-15T14:04:12.682Z,29.50
2018-10-15T14:06:41.640Z,29.50
2018-10-15T14:09:11.659Z,29.60
2018-10-15T14:11:40.881Z,30.10
2018-10-15T14:14:09.900Z,30.50
2018-10-15T14:16:38.913Z,30.40
2018-10-15T14:19:07.862Z,29.30
2018-10-15T14:21:36.967Z,28.10
2018-10-15T14:24:06.457Z,26.40
2018-10-15T14:26:36.225Z,25.30
2018-10-15T14:29:05.756Z,24.30
2018-10-15T14:31:34.709Z,23.50
2018-10-15T14:34:04.176Z,22.90
2018-10-15T14:36:33.597Z,22.60
2018-10-15T14:39:02.692Z,22.20
2018-10-15T14:41:31.827Z,22.00
2018-10-15T14:44:01.316Z,21.80
2018-10-15T14:46:30.440Z,21.60
2018-10-15T14:48:59.514Z,21.40
2018-10-15T14:51:28.503Z,21.20
2018-10-15T14:53:57.620Z,21.10
2018-10-15T14:56:26.555Z,21.00
2018-10-15T14:58:55.686Z,20.90
2018-10-15T15:01:24.622Z,20.80
2018-10-15T15:03:53.508Z,20.70
2018-10-15T15:06:22.693Z,20.60
2018-10-15T15:08:51.566Z,20.50
2018-10-15T15:11:31.519Z,20.50
2018-10-15T15:14:18.250Z,20.40
2018-10-15T15:16:47.659Z,20.40
2018-10-15T15:19:16.898Z,20.30
2018-10-15T15:21:45.923Z,20.20
2018-10-15T15:24:14.784Z,20.10
2018-10-15T15:26:43.704Z,20.00
2018-10-15T15:29:12.676Z,19.90
2018-10-15T15:31:41.593Z,19.80
2018-10-15T15:34:10.623Z,19.70
2018-10-15T15:36:39.518Z,19.60
2018-10-15T15:39:09.284Z,19.50
2018-10-15T15:41:38.297Z,19.40
2018-10-15T15:44:07.330Z,19.20
2018-10-15T15:46:36.226Z,19.20
2018-10-15T15:49:05.640Z,19.10
2018-10-15T15:51:34.611Z,19.10
2018-10-15T15:54:03.661Z,19.00
2018-10-15T15:56:32.640Z,18.90
2018-10-15T15:59:01.486Z,18.80
2018-10-15T16:01:30.430Z,18.60
2018-10-15T16:03:59.379Z,18.50
2018-10-15T16:06:28.799Z,18.30
2018-10-15T16:08:57.713Z,18.20
2018-10-15T16:11:27.041Z,18.10
2018-10-15T16:13:55.945Z,18.00
2018-10-15T16:16:24.858Z,17.90
2018-10-15T16:18:53.887Z,17.80
2018-10-15T16:21:23.120Z,17.60
2018-10-15T16:23:52.021Z,17.50
2018-10-15T16:26:22.931Z,17.40
2018-10-15T16:28:51.817Z,17.20
2018-10-15T16:31:20.759Z,17.00
2018-10-15T16:33:49.666Z,16.80
2018-10-15T16:36:19.576Z,16.70
2018-10-15T16:38:48.481Z,16.60
2018-10-15T16:41:17.380Z,16.50
2018-10-15T16:43:46.354Z,16.40
2018-10-15T16:46:15.523Z,16.30
2018-10-15T16:48:44.469Z,16.10
2018-10-15T16:51:13.702Z,15.90
2018-10-15T16:53:42.533Z,15.80
2018-10-15T16:56:11.538Z,15.70
2018-10-15T16:58:40.399Z,15.60
2018-10-15T17:01:09.315Z,15.50
2018-10-15T17:03:38.233Z,15.40
2018-10-15T17:06:07.118Z,15.40
2018-10-15T17:08:36.049Z,15.30
2018-10-15T17:11:05.013Z,15.10
2018-10-15T17:13:34.448Z,14.90
2018-10-15T17:16:03.309Z,14.80
2018-10-15T17:18:32.254Z,14.70
2018-10-15T17:21:01.799Z,14.50
2018-10-15T17:23:30.906Z,14.40
2018-10-15T17:25:59.840Z,14.30
2018-10-15T17:28:29.064Z,14.20
2018-10-15T17:30:58.446Z,14.00
2018-10-15T17:33:27.567Z,13.90
2018-10-15T17:35:56.520Z,13.90
2018-10-15T17:38:25.729Z,13.80
2018-10-15T17:40:54.743Z,13.80
2018-10-15T17:43:24.174Z,13.70
2018-10-15T17:45:53.480Z,13.70
2018-10-15T17:48:22.448Z,13.50
2018-10-15T17:50:51.571Z,13.30
2018-10-15T17:53:20.712Z,13.00
2018-10-15T17:55:49.721Z,12.90
2018-10-15T17:58:18.683Z,12.80
2018-10-15T18:00:47.629Z,12.70
2018-10-15T18:03:16.542Z,12.50
2018-10-15T18:05:45.546Z,12.40
2018-10-15T18:08:14.728Z,12.30
2018-10-15T18:10:43.942Z,12.20
2018-10-15T18:13:13.549Z,12.20
2018-10-15T18:15:42.817Z,12.10
2018-10-15T18:18:11.782Z,12.00
2018-10-15T18:20:40.800Z,12.00
2018-10-15T18:23:09.802Z,11.90
2018-10-15T18:25:38.881Z,11.80
2018-10-15T18:28:07.918Z,11.60
2018-10-15T18:30:36.927Z,11.60
2018-10-15T18:33:05.918Z,11.50
2018-10-15T18:35:34.932Z,11.50
2018-10-15T18:38:03.908Z,11.40
2018-10-15T18:40:32.898Z,11.40
2018-10-15T18:43:01.802Z,11.40
2018-10-15T18:45:30.828Z,11.40
2018-10-15T18:47:59.837Z,11.40
2018-10-15T18:50:28.967Z,11.30
2018-10-15T18:52:58.292Z,11.20
2018-10-15T18:55:27.587Z,11.10
2018-10-15T18:57:56.617Z,11.00
2018-10-15T19:00:25.627Z,11.00
2018-10-15T19:02:54.589Z,10.90
2018-10-15T19:05:23.504Z,10.90
2018-10-15T19:07:52.463Z,10.90
2018-10-15T19:10:21.441Z,10.90
2018-10-15T19:12:50.637Z,10.90
2018-10-15T19:15:19.602Z,10.90
2018-10-15T19:17:48.523Z,10.80
2018-10-15T19:20:17.513Z,10.60
2018-10-15T19:22:46.422Z,10.50
2018-10-15T19:25:15.843Z,10.40
2018-10-15T19:27:45.224Z,10.40
2018-10-15T19:30:15.585Z,10.30
2018-10-15T19:32:45.293Z,10.20
2018-10-15T19:35:14.237Z,10.20
2018-10-15T19:37:44.423Z,10.10
2018-10-15T19:40:14.472Z,10.00
2018-10-15T19:42:45.107Z,9.90
2018-10-15T19:45:14.510Z,9.90
2018-10-15T19:47:43.882Z,9.80
2018-10-15T19:50:12.854Z,9.90
2018-10-15T19:52:41.853Z,9.90
2018-10-15T19:55:11.108Z,9.90
2018-10-15T19:57:40.175Z,9.80
2018-10-15T20:00:11.576Z,9.80
2018-10-15T20:02:40.769Z,9.70
2018-10-15T20:05:10.124Z,9.70
2018-10-15T20:07:39.338Z,9.60
2018-10-15T20:10:10.423Z,9.60
2018-10-15T20:12:39.844Z,9.60
2018-10-15T20:15:09.614Z,9.60
2018-10-15T20:17:39.267Z,9.50
2018-10-15T20:20:08.784Z,9.50
2018-10-15T20:22:37.732Z,9.40
2018-10-15T20:25:08.699Z,9.40
2018-10-15T20:27:37.953Z,9.30
2018-10-15T20:30:07.795Z,9.20
2018-10-15T20:32:36.939Z,9.20
2018-10-15T20:35:07.267Z,9.10
2018-10-15T20:37:36.227Z,9.00
2018-10-15T20:40:05.451Z,9.00
2018-10-15T20:42:34.737Z,9.00
2018-10-15T20:45:04.190Z,9.00
2018-10-15T20:47:33.187Z,9.10
2018-10-15T20:50:02.186Z,9.10
2018-10-15T20:52:31.072Z,9.10
2018-10-15T20:55:00.107Z,8.90
2018-10-15T20:57:29.039Z,8.90
2018-10-15T20:59:57.922Z,9.00
2018-10-15T21:02:26.838Z,9.10
2018-10-15T21:04:55.862Z,9.10
2018-10-15T21:07:24.823Z,9.00
2018-10-15T21:09:53.829Z,8.90
2018-10-15T21:12:23.393Z,8.90
2018-10-15T21:14:52.329Z,8.90
2018-10-15T21:17:21.204Z,8.80
2018-10-15T21:19:50.206Z,8.70
2018-10-15T21:22:19.163Z,8.70
2018-10-15T21:24:48.613Z,8.60
2018-10-15T21:27:17.595Z,8.50
2018-10-15T21:29:46.396Z,8.60
2018-10-15T21:32:15.342Z,8.70
2018-10-15T21:34:44.194Z,8.70
2018-10-15T21:37:13.148Z,8.70
2018-10-15T21:39:41.983Z,8.50
2018-10-15T21:42:10.985Z,8.40
2018-10-15T21:44:39.867Z,8.30
2018-10-15T21:47:08.767Z,8.40
2018-10-15T21:49:37.748Z,8.40
2018-10-15T21:52:07.299Z,8.40
2018-10-15T21:54:36.131Z,8.50
2018-10-15T21:57:05.318Z,8.50
2018-10-15T21:59:34.206Z,8.50
2018-10-15T22:02:03.217Z,8.50
2018-10-15T22:04:32.475Z,8.50
2018-10-15T22:07:01.360Z,8.50
2018-10-15T22:09:30.194Z,8.50
2018-10-15T22:11:59.039Z,8.50
2018-10-15T22:14:28.139Z,8.50
2018-10-15T22:16:57.003Z,8.40
2018-10-15T22:19:25.809Z,8.30
2018-10-15T22:21:54.599Z,8.20
2018-10-15T22:24:23.396Z,8.10
2018-10-15T22:26:52.248Z,8.10
2018-10-15T22:29:21.208Z,8.00
2018-10-15T22:31:50.094Z,7.90
2018-10-15T22:34:18.909Z,7.90
2018-10-15T22:36:47.817Z,7.90
2018-10-15T22:39:16.665Z,7.90
2018-10-15T22:41:45.518Z,7.80
2018-10-15T22:44:14.476Z,7.80
2018-10-15T22:46:43.294Z,7.70
2018-10-15T22:49:12.177Z,7.70
2018-10-15T22:51:40.986Z,7.70
2018-10-15T22:54:09.851Z,7.80
2018-10-15T22:56:38.687Z,7.90
2018-10-15T22:59:07.483Z,8.10
2018-10-15T23:01:36.317Z,8.30
2018-10-15T23:04:05.613Z,8.50
2018-10-15T23:06:34.474Z,8.60
2018-10-15T23:09:03.510Z,8.70
2018-10-15T23:11:32.417Z,8.70
2018-10-15T23:14:01.273Z,8.80
2018-10-15T23:16:30.153Z,8.80
2018-10-15T23:18:59.060Z,8.80
2018-10-15T23:21:27.958Z,8.80
2018-10-15T23:23:56.853Z,8.80
2018-10-15T23:26:25.769Z,8.80
2018-10-15T23:28:54.654Z,8.80
2018-10-15T23:31:23.522Z,8.70
2018-10-15T23:33:52.452Z,8.70
2018-10-15T23:36:21.707Z,8.60
2018-10-15T23:38:50.562Z,8.50
2018-10-15T23:41:19.786Z,8.40
2018-10-15T23:43:48.700Z,8.30
2018-10-15T23:46:17.665Z,8.20
2018-10-15T23:48:46.538Z,8.10
2018-10-15T23:51:15.428Z,8.20
2018-10-15T23:53:44.390Z,8.30
2018-10-15T23:56:13.647Z,8.30
2018-10-15T23:58:42.507Z,8.30
